createdAt,value
2017-10-09T00:00:07.672Z,84.74
2017-10-09T00:02:35.070Z,84.85
2017-10-09T00:05:02.652Z,84.40
2017-10-09T00:07:30.121Z,84.90
2017-10-09T00:09:57.862Z,85.35
2017-10-09T00:12:25.274Z,84.12
2017-10-09T00:14:52.676Z,84.07
2017-10-09T00:17:20.101Z,84.07
2017-10-09T00:19:47.502Z,83.88
2017-10-09T00:22:14.926Z,84.35
2017-10-09T00:24:42.333Z,84.27
2017-10-09T00:27:10.058Z,84.36
2017-10-09T00:29:37.508Z,84.07
2017-10-09T00:32:04.931Z,84.21
2017-10-09T00:34:32.393Z,84.33
2017-10-09T00:36:59.814Z,84.48
2017-10-09T00:39:27.564Z,84.52
2017-10-09T00:41:55.051Z,84.57
2017-10-09T00:44:22.470Z,84.53
2017-10-09T00:46:49.890Z,84.26
2017-10-09T00:49:17.306Z,83.89
2017-10-09T00:51:44.738Z,83.91
2017-10-09T00:54:12.138Z,83.74
2017-10-09T00:56:39.857Z,83.98
2017-10-09T00:59:07.260Z,83.56
2017-10-09T01:01:34.665Z,83.32
2017-10-09T01:04:02.098Z,83.19
2017-10-09T01:06:29.525Z,83.08
2017-10-09T01:08:56.945Z,83.27
2017-10-09T01:11:24.361Z,83.25
2017-10-09T01:13:52.157Z,83.00
2017-10-09T01:16:19.577Z,82.63
2017-10-09T01:18:46.990Z,82.67
2017-10-09T01:21:14.411Z,82.63
2017-10-09T01:23:41.814Z,82.74
2017-10-09T01:26:09.553Z,82.41
2017-10-09T01:28:37.001Z,82.44
2017-10-09T01:31:04.466Z,82.43
2017-10-09T01:33:31.897Z,82.44
2017-10-09T01:35:59.383Z,83.29
2017-10-09T01:38:27.135Z,82.69
2017-10-09T01:40:54.542Z,82.82
2017-10-09T01:43:22.064Z,82.34
2017-10-09T01:45:49.471Z,82.48
2017-10-09T01:48:16.970Z,82.48
2017-10-09T01:50:44.396Z,82.73
2017-10-09T01:53:11.876Z,82.82
2017-10-09T01:55:39.651Z,82.96
2017-10-09T01:58:07.076Z,83.01
2017-10-09T02:00:34.480Z,83.42
2017-10-09T02:03:01.911Z,83.76
2017-10-09T02:05:29.328Z,84.07
2017-10-09T02:07:56.752Z,84.10
2017-10-09T02:10:24.148Z,84.05
2017-10-09T02:12:51.948Z,83.09
2017-10-09T02:15:19.374Z,83.03
2017-10-09T02:17:46.860Z,83.34
2017-10-09T02:20:14.283Z,83.35
2017-10-09T02:22:41.716Z,83.62
2017-10-09T02:25:09.136Z,82.73
2017-10-09T02:27:36.560Z,83.31
2017-10-09T02:30:04.288Z,83.12
2017-10-09T02:32:31.692Z,83.35
2017-10-09T02:34:59.097Z,82.83
2017-10-09T02:37:26.534Z,82.08
2017-10-09T02:39:53.956Z,81.87
2017-10-09T02:42:21.424Z,82.35
2017-10-09T02:44:48.826Z,82.82
2017-10-09T02:47:16.556Z,82.76
2017-10-09T02:49:44.011Z,82.92
2017-10-09T02:52:11.429Z,83.23
2017-10-09T02:54:38.859Z,82.98
2017-10-09T02:57:06.278Z,82.63
2017-10-09T02:59:33.714Z,83.13
2017-10-09T03:02:01.192Z,83.19
2017-10-09T03:04:28.963Z,83.02
2017-10-09T03:06:56.372Z,83.08
2017-10-09T03:09:23.796Z,83.27
2017-10-09T03:11:51.220Z,83.33
2017-10-09T03:14:18.629Z,84.49
2017-10-09T03:16:46.056Z,84.79
2017-10-09T03:19:13.459Z,84.49
2017-10-09T03:21:41.186Z,84.69
2017-10-09T03:24:14.210Z,85.17
2017-10-09T03:29:53.045Z,84.89
2017-10-09T03:32:20.749Z,85.14
2017-10-09T03:34:48.159Z,85.03
2017-10-09T03:37:15.563Z,85.36
2017-10-09T03:39:42.986Z,85.47
2017-10-09T03:42:10.404Z,85.63
2017-10-09T03:44:37.836Z,85.69
2017-10-09T03:47:05.284Z,85.98
2017-10-09T03:49:32.713Z,86.30
2017-10-09T03:52:00.133Z,86.47
2017-10-09T03:54:27.961Z,86.80
2017-10-09T03:56:55.365Z,86.61
2017-10-09T03:59:22.796Z,86.74
2017-10-09T04:01:50.225Z,86.72
2017-10-09T04:04:17.636Z,86.51
2017-10-09T04:06:45.053Z,86.56
2017-10-09T04:09:12.474Z,86.89
2017-10-09T04:11:41.293Z,86.93
2017-10-09T04:14:08.717Z,86.90
2017-10-09T04:16:36.214Z,86.66
2017-10-09T04:19:03.688Z,86.77
2017-10-09T04:21:31.102Z,87.11
2017-10-09T04:23:58.955Z,87.41
2017-10-09T04:26:26.441Z,87.23
2017-10-09T04:28:53.868Z,87.22
2017-10-09T04:31:21.303Z,87.37
2017-10-09T04:33:48.715Z,87.40
2017-10-09T04:36:16.243Z,87.46
2017-10-09T04:38:43.691Z,87.29
2017-10-09T04:41:11.503Z,87.45
2017-10-09T04:43:38.907Z,87.17
2017-10-09T04:46:06.308Z,87.24
2017-10-09T04:48:34.283Z,87.19
2017-10-09T04:51:01.706Z,87.08
2017-10-09T04:53:29.490Z,86.95
2017-10-09T04:55:56.909Z,86.98
2017-10-09T04:58:24.332Z,86.76
2017-10-09T05:00:51.776Z,86.82
2017-10-09T05:03:19.198Z,87.14
2017-10-09T05:05:46.996Z,86.97
2017-10-09T05:08:14.464Z,87.15
2017-10-09T05:10:41.878Z,87.05
2017-10-09T05:13:09.371Z,88.08
2017-10-09T05:15:36.799Z,87.49
2017-10-09T05:18:04.609Z,87.18
2017-10-09T05:20:32.028Z,86.87
2017-10-09T05:22:59.456Z,86.14
2017-10-09T05:34:15.349Z,86.30
2017-10-09T05:36:43.688Z,86.53
2017-10-09T05:39:11.135Z,86.62
2017-10-09T05:41:39.032Z,86.57
2017-10-09T05:44:06.424Z,86.75
2017-10-09T05:46:33.847Z,86.96
2017-10-09T05:49:01.310Z,86.81
2017-10-09T05:51:28.762Z,86.43
2017-10-09T05:53:56.182Z,86.26
2017-10-09T05:56:23.584Z,86.38
2017-10-09T05:58:51.363Z,86.20
2017-10-09T06:01:18.764Z,86.41
2017-10-09T06:03:46.243Z,86.13
2017-10-09T06:06:13.668Z,85.97
2017-10-09T06:08:41.101Z,86.21
2017-10-09T06:11:08.975Z,86.61
2017-10-09T06:13:36.499Z,86.45
2017-10-09T06:16:03.948Z,86.45
2017-10-09T06:18:31.431Z,86.39
2017-10-09T06:20:58.873Z,86.22
2017-10-09T06:23:26.340Z,85.96
2017-10-09T06:25:53.757Z,86.15
2017-10-09T06:28:21.593Z,86.56
2017-10-09T06:30:48.992Z,86.24
2017-10-09T06:33:16.397Z,86.60
2017-10-09T06:35:43.852Z,86.61
2017-10-09T06:38:11.291Z,86.89
2017-10-09T06:40:38.788Z,87.05
2017-10-09T06:43:06.207Z,87.20
2017-10-09T06:45:33.695Z,87.68
2017-10-09T06:48:02.124Z,86.94
2017-10-09T06:50:29.892Z,87.37
2017-10-09T06:52:57.366Z,86.84
2017-10-09T06:55:24.801Z,86.51
2017-10-09T06:57:52.226Z,86.82
2017-10-09T07:00:19.630Z,86.57
2017-10-09T07:02:47.104Z,86.78
2017-10-09T07:05:14.517Z,86.05
2017-10-09T07:07:42.291Z,86.15
2017-10-09T07:10:09.711Z,86.15
2017-10-09T07:12:37.205Z,86.36
2017-10-09T07:15:04.640Z,86.48
2017-10-09T07:17:32.139Z,87.54
2017-10-09T07:19:59.620Z,88.20
2017-10-09T07:22:27.077Z,88.03
2017-10-09T07:24:54.801Z,87.67
2017-10-09T07:27:22.218Z,87.31
2017-10-09T07:29:49.627Z,87.26
2017-10-09T07:32:17.058Z,87.37
2017-10-09T07:34:44.500Z,87.34
2017-10-09T07:37:12.296Z,86.80
2017-10-09T07:39:39.747Z,86.66
2017-10-09T07:42:07.171Z,86.90
2017-10-09T07:44:34.594Z,86.83
2017-10-09T07:47:02.021Z,86.11
2017-10-09T07:49:29.463Z,86.17
2017-10-09T07:51:56.867Z,86.60
2017-10-09T07:54:24.576Z,87.16
2017-10-09T07:56:51.992Z,87.14
2017-10-09T07:59:19.401Z,86.95
2017-10-09T08:01:46.838Z,86.78
2017-10-09T08:04:14.245Z,86.79
2017-10-09T08:06:41.670Z,86.46
2017-10-09T08:09:09.147Z,86.36
2017-10-09T08:11:37.225Z,86.12
2017-10-09T08:14:04.645Z,82.82
2017-10-09T08:16:32.052Z,82.34
2017-10-09T08:18:59.516Z,82.72
2017-10-09T08:21:26.949Z,83.23
2017-10-09T08:23:54.761Z,82.03
2017-10-09T08:26:22.219Z,82.53
2017-10-09T08:28:49.630Z,81.25
2017-10-09T08:31:17.161Z,81.26
2017-10-09T08:33:44.570Z,80.84
2017-10-09T08:36:12.336Z,80.79
2017-10-09T08:38:39.778Z,81.85
2017-10-09T08:46:13.034Z,81.89
2017-10-09T08:51:13.412Z,79.30
2017-10-09T08:53:40.892Z,79.59
2017-10-09T08:58:42.857Z,77.83
2017-10-09T09:03:43.150Z,78.28
2017-10-09T09:11:16.284Z,79.40
2017-10-09T09:18:49.245Z,76.36
2017-10-09T09:21:16.730Z,77.44
2017-10-09T09:31:22.607Z,78.28
2017-10-09T09:33:50.060Z,78.46
2017-10-09T09:38:50.446Z,77.51
2017-10-09T09:41:17.930Z,75.80
2017-10-09T09:48:51.126Z,75.95
2017-10-09T09:56:24.343Z,75.60
2017-10-09T09:58:51.814Z,73.92
2017-10-09T10:01:19.256Z,75.25
2017-10-09T10:03:46.733Z,75.30
2017-10-09T10:06:14.166Z,74.96
2017-10-09T10:08:41.652Z,75.01
2017-10-09T10:11:09.082Z,74.77
2017-10-09T10:13:37.642Z,75.17
2017-10-09T10:16:05.065Z,74.97
2017-10-09T10:18:32.552Z,74.24
2017-10-09T10:20:59.958Z,73.72
2017-10-09T10:23:27.441Z,72.69
2017-10-09T10:25:55.731Z,72.47
2017-10-09T10:28:23.456Z,72.42
2017-10-09T10:30:51.046Z,70.75
2017-10-09T10:33:18.446Z,71.38
2017-10-09T10:35:45.947Z,72.09
2017-10-09T10:38:13.395Z,72.78
2017-10-09T10:40:40.821Z,72.46
2017-10-09T10:43:08.266Z,69.68
2017-10-09T10:45:36.044Z,70.85
2017-10-09T10:48:03.460Z,69.17
2017-10-09T10:50:30.870Z,68.98
2017-10-09T10:52:58.299Z,70.55
2017-10-09T10:55:25.730Z,70.77
2017-10-09T10:57:53.185Z,69.62
2017-10-09T11:00:20.624Z,69.83
2017-10-09T11:02:48.056Z,70.54
2017-10-09T11:05:15.554Z,70.47
2017-10-09T11:10:17.160Z,71.18
2017-10-09T11:12:45.558Z,71.15
2017-10-09T11:15:13.931Z,70.37
2017-10-09T11:17:41.320Z,71.68
2017-10-09T11:20:08.754Z,70.60
2017-10-09T11:22:36.166Z,70.69
2017-10-09T11:25:03.610Z,70.71
2017-10-09T11:27:31.066Z,70.13
2017-10-09T11:29:58.468Z,70.58
2017-10-09T11:32:25.892Z,69.89
2017-10-09T11:34:53.348Z,70.25
2017-10-09T11:37:20.801Z,69.92
2017-10-09T11:39:48.262Z,70.59
2017-10-09T11:42:15.702Z,70.26
2017-10-09T11:47:09.868Z,70.68
2017-10-09T11:49:37.319Z,70.55
2017-10-09T11:52:04.745Z,71.25
2017-10-09T11:54:32.165Z,72.08
2017-10-09T11:56:59.578Z,72.36
2017-10-09T11:59:27.025Z,72.65
2017-10-09T12:01:54.551Z,73.22
2017-10-09T12:04:21.980Z,73.83
2017-10-09T12:06:49.411Z,74.32
2017-10-09T12:09:16.829Z,75.96
2017-10-09T12:11:44.611Z,75.92
2017-10-09T12:14:12.310Z,76.70
2017-10-09T12:16:39.732Z,77.63
2017-10-09T12:19:07.199Z,77.95
2017-10-09T12:21:34.993Z,77.94
2017-10-09T12:24:02.493Z,77.92
2017-10-09T12:26:29.986Z,76.60
2017-10-09T12:28:57.521Z,75.28
2017-10-09T12:31:24.928Z,73.54
2017-10-09T12:33:52.341Z,71.22
2017-10-09T12:36:19.806Z,67.99
2017-10-09T12:38:47.227Z,64.57
2017-10-09T12:41:14.653Z,65.96
2017-10-09T12:43:42.104Z,65.62
2017-10-09T12:46:09.562Z,67.14
2017-10-09T12:48:37.043Z,67.28
2017-10-09T12:51:04.460Z,67.29
2017-10-09T12:53:31.935Z,68.68
2017-10-09T12:55:59.396Z,69.74
2017-10-09T12:58:27.209Z,70.45
2017-10-09T13:00:54.612Z,71.91
2017-10-09T13:03:22.039Z,72.58
2017-10-09T13:05:49.493Z,73.39
2017-10-09T13:08:16.980Z,72.71
2017-10-09T13:10:44.387Z,74.49
2017-10-09T13:13:11.791Z,74.19
2017-10-09T13:15:39.587Z,73.98
2017-10-09T13:18:07.016Z,74.25
2017-10-09T13:20:34.480Z,73.89
2017-10-09T13:23:01.996Z,73.46
2017-10-09T13:25:29.417Z,73.69
2017-10-09T13:27:57.201Z,71.94
2017-10-09T13:30:24.607Z,72.12
2017-10-09T13:32:52.057Z,72.49
2017-10-09T13:35:19.531Z,72.04
2017-10-09T13:37:46.956Z,72.61
2017-10-09T13:40:14.691Z,72.21
2017-10-09T13:42:42.124Z,72.33
2017-10-09T13:47:42.376Z,73.55
2017-10-09T13:50:09.863Z,72.56
2017-10-09T13:52:37.457Z,72.89
2017-10-09T13:55:04.926Z,73.62
2017-10-09T14:02:39.923Z,72.04
2017-10-09T14:05:07.393Z,73.17
2017-10-09T14:12:40.636Z,72.58
2017-10-09T14:17:41.090Z,70.86
2017-10-09T14:22:41.321Z,71.68
2017-10-09T14:30:16.210Z,68.53
2017-10-09T14:40:06.099Z,67.57
2017-10-09T14:42:33.598Z,67.97
2017-10-09T14:45:01.109Z,69.16
2017-10-09T14:47:28.625Z,68.97
2017-10-09T14:49:56.120Z,69.91
2017-10-09T14:52:23.595Z,69.42
2017-10-09T14:54:52.072Z,69.28
2017-10-09T14:57:19.564Z,70.77
2017-10-09T14:59:47.168Z,69.76
2017-10-09T15:02:14.644Z,70.37
2017-10-09T15:04:42.241Z,70.44
2017-10-09T15:07:09.718Z,70.40
2017-10-09T15:09:37.264Z,71.84
2017-10-09T15:12:04.797Z,71.58
2017-10-09T15:14:32.304Z,71.97
2017-10-09T15:16:59.907Z,72.66
2017-10-09T15:19:27.375Z,73.31
2017-10-09T15:21:54.938Z,72.37
2017-10-09T15:24:22.434Z,72.67
2017-10-09T15:26:50.275Z,72.96
2017-10-09T15:29:17.765Z,74.10
2017-10-09T15:31:45.262Z,73.72
2017-10-09T15:34:12.792Z,74.24
2017-10-09T15:36:40.370Z,74.76
2017-10-09T15:39:07.893Z,75.31
2017-10-09T15:41:35.419Z,75.71
2017-10-09T15:44:02.902Z,75.91
2017-10-09T15:46:30.383Z,76.56
2017-10-09T15:48:58.197Z,76.83
2017-10-09T15:51:25.681Z,77.00
2017-10-09T15:53:53.200Z,77.43
2017-10-09T15:56:20.674Z,77.98
2017-10-09T15:58:48.169Z,78.34
2017-10-09T16:01:15.667Z,78.61
2017-10-09T16:03:43.217Z,78.92
2017-10-09T16:06:10.774Z,78.44
2017-10-09T16:08:38.283Z,78.16
2017-10-09T16:11:06.048Z,78.55
2017-10-09T16:13:33.521Z,78.74
2017-10-09T16:16:00.989Z,79.25
2017-10-09T16:18:28.453Z,79.35
2017-10-09T16:26:39.212Z,80.45
2017-10-09T16:29:12.351Z,80.68
2017-10-09T16:31:40.178Z,81.02
2017-10-09T16:34:07.639Z,81.54
2017-10-09T16:36:35.133Z,81.60
2017-10-09T16:39:02.608Z,81.88
2017-10-09T16:41:30.139Z,81.20
2017-10-09T16:43:57.627Z,80.51
2017-10-09T16:46:25.110Z,80.36
2017-10-09T16:48:52.590Z,80.29
2017-10-09T16:51:20.080Z,79.83
2017-10-09T16:53:47.536Z,79.58
2017-10-09T16:56:15.026Z,80.02
2017-10-09T16:58:42.517Z,78.62
2017-10-09T17:01:10.024Z,79.66
2017-10-09T17:03:37.491Z,78.65
2017-10-09T17:06:04.974Z,78.39
2017-10-09T17:08:32.454Z,78.73
2017-10-09T17:10:59.931Z,78.73
2017-10-09T17:13:27.411Z,78.59
2017-10-09T17:15:54.913Z,79.07
2017-10-09T17:18:22.688Z,78.00
2017-10-09T17:20:50.172Z,77.31
2017-10-09T17:23:17.632Z,78.16
2017-10-09T17:25:45.104Z,79.20
2017-10-09T17:28:13.194Z,78.92
2017-10-09T17:30:40.968Z,79.82
2017-10-09T17:33:08.536Z,79.97
2017-10-09T17:35:36.037Z,78.16
2017-10-09T17:38:03.537Z,75.73
2017-10-09T17:40:31.001Z,76.92
2017-10-09T17:42:58.503Z,76.41
2017-10-09T17:45:26.020Z,76.25
2017-10-09T17:47:53.523Z,74.31
2017-10-09T17:50:21.229Z,74.92
2017-10-09T17:52:48.696Z,76.05
2017-10-09T17:55:16.182Z,76.40
2017-10-09T17:57:43.673Z,77.40
2017-10-09T18:00:11.201Z,78.14
2017-10-09T18:02:38.766Z,79.13
2017-10-09T18:05:06.246Z,79.62
2017-10-09T18:07:33.762Z,79.61
2017-10-09T18:10:01.237Z,79.97
2017-10-09T18:12:28.712Z,79.32
2017-10-09T18:14:56.199Z,78.57
2017-10-09T18:17:24.006Z,77.15
2017-10-09T18:19:51.467Z,77.84
2017-10-09T18:22:18.963Z,77.06
2017-10-09T18:24:46.443Z,76.62
2017-10-09T18:27:13.952Z,77.19
2017-10-09T18:29:41.427Z,77.78
2017-10-09T18:32:08.882Z,77.04
2017-10-09T18:34:36.712Z,77.20
2017-10-09T18:37:04.185Z,77.12
2017-10-09T18:39:31.663Z,76.60
2017-10-09T18:41:59.246Z,77.05
2017-10-09T18:44:26.722Z,77.37
2017-10-09T18:46:55.126Z,77.43
2017-10-09T18:49:22.645Z,77.39
2017-10-09T18:51:50.941Z,77.84
2017-10-09T18:54:18.541Z,77.46
2017-10-09T18:56:46.012Z,78.16
2017-10-09T18:59:13.486Z,77.83
2017-10-09T19:01:40.947Z,77.88
2017-10-09T19:04:08.912Z,77.93
2017-10-09T19:06:36.427Z,77.70
2017-10-09T19:09:03.927Z,78.03
2017-10-09T19:11:31.401Z,78.41
2017-10-09T19:13:58.870Z,78.20
2017-10-09T19:16:26.346Z,78.51
2017-10-09T19:18:53.817Z,78.48
2017-10-09T19:21:21.303Z,77.79
2017-10-09T19:23:48.779Z,77.63
2017-10-09T19:26:16.298Z,77.78
2017-10-09T19:28:43.831Z,78.12
2017-10-09T19:31:11.306Z,78.67
2017-10-09T19:33:38.799Z,79.04
2017-10-09T19:36:06.272Z,79.61
2017-10-09T19:38:33.882Z,80.14
2017-10-09T19:41:01.349Z,79.60
2017-10-09T19:43:28.832Z,80.33
2017-10-09T19:45:56.303Z,79.85
2017-10-09T19:48:23.796Z,79.88
2017-10-09T19:50:51.269Z,79.90
2017-10-09T19:53:18.757Z,79.93
2017-10-09T19:55:46.244Z,80.06
2017-10-09T19:58:13.748Z,80.08
2017-10-09T20:00:41.237Z,79.90
2017-10-09T20:03:08.792Z,79.95
2017-10-09T20:05:36.254Z,79.83
2017-10-09T20:08:03.745Z,79.42
2017-10-09T20:10:31.213Z,79.45
2017-10-09T20:12:58.690Z,79.38
2017-10-09T20:15:26.455Z,79.09
2017-10-09T20:17:54.038Z,79.24
2017-10-09T20:20:21.579Z,79.27
2017-10-09T20:22:49.036Z,79.01
2017-10-09T20:25:16.526Z,79.06
2017-10-09T20:27:44.044Z,79.58
2017-10-09T20:30:11.583Z,79.13
2017-10-09T20:32:39.090Z,78.97
2017-10-09T20:35:06.599Z,78.67
2017-10-09T20:37:34.084Z,79.50
2017-10-09T20:40:01.583Z,78.98
2017-10-09T20:42:29.092Z,79.12
2017-10-09T20:44:56.611Z,79.76
2017-10-09T20:47:24.109Z,79.53
2017-10-09T20:49:51.645Z,79.66
2017-10-09T20:52:19.158Z,79.27
2017-10-09T20:54:46.636Z,79.41
2017-10-09T20:57:14.110Z,79.57
2017-10-09T20:59:41.587Z,78.89
2017-10-09T21:02:09.048Z,78.50
2017-10-09T21:04:36.534Z,78.67
2017-10-09T21:07:04.000Z,78.65
2017-10-09T21:09:31.536Z,78.85
2017-10-09T21:11:59.097Z,78.60
2017-10-09T21:14:26.577Z,78.62
2017-10-09T21:16:54.079Z,78.67
2017-10-09T21:19:21.550Z,79.17
2017-10-09T21:21:49.047Z,78.74
2017-10-09T21:24:16.577Z,78.35
2017-10-09T21:26:44.123Z,78.81
2017-10-09T21:29:11.613Z,79.23
2017-10-09T21:31:39.092Z,79.30
2017-10-09T21:34:06.575Z,79.79
2017-10-09T21:36:34.034Z,79.55
2017-10-09T21:39:01.648Z,79.62
2017-10-09T21:41:29.898Z,79.90
2017-10-09T21:43:57.781Z,80.12
2017-10-09T21:46:25.255Z,80.25
2017-10-09T21:48:52.741Z,80.26
2017-10-09T21:51:21.177Z,80.08
2017-10-09T21:53:49.252Z,80.34
2017-10-09T21:56:16.748Z,80.20
2017-10-09T21:58:44.237Z,80.06
2017-10-09T22:01:11.808Z,80.19
2017-10-09T22:03:39.310Z,79.75
2017-10-09T22:06:06.807Z,79.35
2017-10-09T22:08:34.285Z,79.46
2017-10-09T22:11:01.763Z,79.29
2017-10-09T22:13:29.243Z,79.04
2017-10-09T22:15:56.730Z,79.18
2017-10-09T22:18:24.226Z,79.24
2017-10-09T22:20:51.685Z,79.63
2017-10-09T22:23:19.170Z,79.36
2017-10-09T22:25:46.664Z,79.75
2017-10-09T22:28:14.118Z,79.94
2017-10-09T22:30:41.614Z,79.34
2017-10-09T22:33:09.105Z,79.61
2017-10-09T22:35:36.600Z,79.57
2017-10-09T22:38:04.118Z,79.33
2017-10-09T22:40:31.614Z,79.90
2017-10-09T22:42:59.102Z,79.70
2017-10-09T22:45:26.595Z,80.03
2017-10-09T22:47:54.096Z,79.12
2017-10-09T22:50:21.570Z,79.28
2017-10-09T22:52:49.058Z,79.44
2017-10-09T22:55:16.532Z,79.02
2017-10-09T22:57:44.036Z,79.12
2017-10-09T23:00:11.502Z,79.33
2017-10-09T23:02:39.041Z,79.33
2017-10-09T23:05:06.504Z,79.99
2017-10-09T23:07:33.980Z,79.61
2017-10-09T23:10:01.457Z,79.50
2017-10-09T23:12:28.927Z,79.62
2017-10-09T23:14:56.686Z,80.12
2017-10-09T23:17:24.269Z,80.58
2017-10-09T23:19:51.728Z,79.67
2017-10-09T23:22:19.193Z,80.09
2017-10-09T23:24:46.651Z,79.75
2017-10-09T23:27:14.164Z,80.26
2017-10-09T23:29:41.627Z,80.40
2017-10-09T23:32:09.103Z,81.13
2017-10-09T23:34:36.600Z,81.28
2017-10-09T23:37:04.056Z,81.17
2017-10-09T23:39:31.548Z,81.18
2017-10-09T23:41:59.067Z,80.57
2017-10-09T23:44:26.528Z,80.27
2017-10-09T23:46:54.016Z,80.42
2017-10-09T23:49:21.483Z,80.70
2017-10-09T23:51:48.959Z,80.58
2017-10-09T23:54:16.428Z,80.25
2017-10-09T23:56:44.223Z,80.29
2017-10-09T23:59:11.687Z,80.46
